Manhattan Regional Airport Manhattan US
ICAO: KMHK
IATA: MHK
Category: Medium
Scheduled Services: Yes

Elevation: 1057 ft
TransAlt. 18000 ft.

Airport Communications:
KANSAS CITY CNTR:127.35
ASOS:119.075
CTAF:118.55
GND:121.85
WICHITA RDO:122.65
TWR:118.55

KMHK Zoom In..

Runways:

(A) RW 03 length 7000 ft width 150 ft
ILS 111.30 / hdg 36

(B) RW 13 length 5000 ft width 75 ft
---- / hdg 138

(C) RW 21 length 7000 ft width 150 ft
---- / hdg 216

(D) RW 31 length 5000 ft width 75 ft
---- / hdg 318

Location; KMHK
Day. 22 / Time. 23.52 Zulu
* Altimeter: 29.77
* Temperature: 01° c. 33.8°f.
* Wind from: 330° Speed 11 kn with Gusts up to 22 kn.
Dewpoint: -02° c.
Visibility: 5 Statute Miles.
Clouds: Scattered 1800 ft.
Clouds: Overcast 2500 ft.
Conditions: Light Snow.

KMHK 222352Z 33011G22KT 290V350 5SM -SN SCT018 OVC025 01/M02 A2977 RMK AO2 UPB41E45SNE41B45 SLP090 P0000 60005 T00061022 10006 20000 53054


Wind From 330°
Speed 11 kn.

YouTube Music Video
 
jpsmedia.com for Web Design  worldairports.se 2018   terms of use